Time;durP1;ratioP1;P1;durP2;ratioP2;P2;SDS_P1;SDS_P2;PMS_P1;PMS_P2;Temp;Humidity;BMP_temperature;BMP_pressure;BME280_temperature;BME280_humidity;BME280_pressure;Samples;Min_cycle;Max_cycle;Signal;HPM_P1;HPM_P2
2020/12/18 00:01:31;;;;;;;8.75;6.95;;;3.80;84.00;;;3.07;67.94;95777.28;5032197;28;20258;-81
2020/12/18 00:03:59;;;;;;;10.38;7.18;;;3.80;84.00;;;3.10;68.07;95766.63;5016216;28;20228;-82
2020/12/18 00:06:34;;;;;;;8.80;6.85;;;3.90;84.00;;;3.12;67.59;95772.53;5032114;28;20573;-81
2020/12/18 00:09:05;;;;;;;8.52;6.93;;;3.90;84.00;;;3.14;68.04;95762.88;5031878;28;20238;-81
2020/12/18 00:11:33;;;;;;;10.20;7.22;;;3.90;84.00;;;3.13;67.88;95764.63;5032135;28;20189;-82
2020/12/18 00:13:59;;;;;;;11.70;7.32;;;4.00;84.00;;;3.13;68.15;95764.63;5015534;28;20209;-81
2020/12/18 00:16:26;;;;;;;10.70;7.63;;;4.10;84.00;;;3.09;67.88;95752.88;5048287;28;20201;-82
2020/12/18 00:18:53;;;;;;;8.95;6.82;;;4.00;83.80;;;3.17;68.21;95771.22;5015458;28;20224;-83
2020/12/18 00:21:23;;;;;;;9.32;7.13;;;4.00;83.80;;;3.17;67.84;95778.16;5015397;28;20685;-82
2020/12/18 00:23:51;;;;;;;9.98;7.38;;;4.00;83.80;;;3.17;67.82;95767.78;5038851;28;20183;-82
2020/12/18 00:26:19;;;;;;;9.02;6.68;;;4.10;83.80;;;3.19;67.75;95771.09;5052167;28;20290;-82
2020/12/18 00:28:48;;;;;;;9.90;6.88;;;4.10;83.80;;;3.23;67.79;95771.66;5035221;28;20200;-82
2020/12/18 00:31:15;;;;;;;9.57;6.85;;;4.10;84.70;;;3.27;68.10;95788.59;5035196;28;20712;-81
2020/12/18 00:33:42;;;;;;;8.73;6.70;;;4.10;83.90;;;3.29;67.74;95786.72;5035171;28;20609;-83
2020/12/18 00:36:13;;;;;;;9.38;6.45;;;4.10;83.90;;;3.30;67.83;95786.59;5018519;28;20200;-83
2020/12/18 00:38:40;;;;;;;9.80;7.18;;;4.20;84.00;;;3.34;67.88;95779.38;5034806;28;20654;-82
2020/12/18 00:41:07;;;;;;;15.02;9.43;;;4.20;84.00;;;3.30;68.15;95773.63;5018135;28;20192;-82
2020/12/18 00:43:34;;;;;;;10.65;7.40;;;4.20;84.10;;;3.39;68.15;95797.97;5034999;28;20581;-82
2020/12/18 00:46:06;;;;;;;11.23;7.70;;;4.20;84.10;;;3.41;68.25;95784.91;5015370;28;20201;-82
2020/12/18 00:48:34;;;;;;;10.82;7.53;;;4.20;84.10;;;3.44;68.11;95789.81;5015273;28;20214;-82
2020/12/18 00:51:09;;;;;;;11.38;8.25;;;4.20;84.10;;;3.47;68.14;95792.19;5016146;28;20188;-82
2020/12/18 00:53:36;;;;;;;10.88;7.88;;;4.30;84.10;;;3.48;67.57;95786.84;5035920;28;20195;-82
2020/12/18 00:56:09;;;;;;;13.52;9.13;;;4.30;84.00;;;3.52;68.11;95790.03;5034999;28;20192;-82
2020/12/18 00:58:44;;;;;;;15.10;8.77;;;4.30;84.10;;;3.52;68.32;95782.25;5052103;28;20209;-81
2020/12/18 01:01:13;;;;;;;11.70;8.05;;;4.30;84.10;;;3.56;67.89;95794.00;5035110;28;20207;-82
2020/12/18 01:03:40;;;;;;;15.32;8.98;;;4.40;84.10;;;3.59;67.62;95793.75;5018702;28;20614;-82
2020/12/18 01:06:10;;;;;;;12.43;8.48;;;4.40;84.20;;;3.62;67.98;95792.69;5035157;28;20196;-83
2020/12/18 01:08:44;;;;;;;13.70;8.80;;;4.40;84.10;;;3.58;68.14;95783.50;5050840;28;20200;-82
2020/12/18 01:11:14;;;;;;;13.43;8.85;;;4.40;84.00;;;3.60;67.95;95790.22;5035297;28;20200;-82
2020/12/18 01:13:42;;;;;;;12.00;8.55;;;4.50;84.00;;;3.62;67.93;95803.06;5034804;28;20200;-82
2020/12/18 01:16:12;;;;;;;12.00;8.50;;;4.50;84.00;;;3.60;68.00;95792.81;5035427;28;20287;-81
2020/12/18 01:18:43;;;;;;;10.05;7.85;;;4.50;84.00;;;3.66;68.13;95804.44;5035274;28;20199;-82
2020/12/18 01:21:25;;;;;;;12.30;7.85;;;4.50;84.00;;;3.65;67.92;95798.44;5036871;28;20188;-82
2020/12/18 01:23:53;;;;;;;11.07;7.72;;;4.50;84.00;;;3.63;67.93;95794.31;5018397;28;20199;-82
2020/12/18 01:26:20;;;;;;;11.18;8.32;;;4.50;84.00;;;3.68;67.97;95795.56;5018267;28;20245;-82
2020/12/18 01:28:48;;;;;;;10.75;7.68;;;4.50;84.00;;;3.67;68.15;95786.16;5020256;28;20212;-81
2020/12/18 01:31:14;;;;;;;11.70;8.75;;;4.60;84.10;;;3.69;68.10;95793.81;5037665;28;20737;-82
2020/12/18 01:33:45;;;;;;;12.13;8.93;;;4.60;84.00;;;3.70;68.03;95790.28;5038996;28;20245;-82
2020/12/18 01:36:21;;;;;;;12.25;8.98;;;4.50;83.90;;;3.68;67.91;95802.53;5039414;28;20199;-81
2020/12/18 01:38:51;;;;;;;13.48;9.32;;;4.50;83.90;;;3.62;67.98;95793.50;5038570;28;20227;-82
2020/12/18 01:41:18;;;;;;;12.88;9.10;;;4.50;84.60;;;3.67;68.04;95809.53;5038441;28;20284;-82
2020/12/18 01:43:46;;;;;;;13.45;9.10;;;4.60;83.90;;;3.67;68.02;95804.34;5055076;28;20215;-80
2020/12/18 01:46:14;;;;;;;14.90;10.30;;;4.60;83.90;;;3.69;68.20;95809.38;5038061;28;20550;-82
2020/12/18 01:48:47;;;;;;;17.35;10.80;;;4.60;84.00;;;3.65;67.90;95789.81;5031618;28;20211;-82
2020/12/18 01:51:15;;;;;;;16.70;10.30;;;4.60;84.00;;;3.72;68.22;95805.72;5021951;28;20294;-82
2020/12/18 01:53:45;;;;;;;13.75;9.50;;;4.60;84.10;;;3.74;68.03;95802.03;5007255;28;20188;-82
2020/12/18 01:56:30;;;;;;;14.93;9.80;;;4.60;84.10;;;3.67;68.12;95786.16;5054726;28;20192;-82
2020/12/18 01:59:14;;;;;;;13.60;9.38;;;4.60;84.10;;;3.74;68.27;95789.06;5056639;28;20697;-82
2020/12/18 02:02:11;;;;;;;13.25;8.48;;;4.60;84.10;;;3.76;68.25;95788.94;5046039;28;20375;-82
2020/12/18 02:04:48;;;;;;;12.05;8.35;;;4.60;84.10;;;3.80;67.87;95790.34;5039241;28;20388;-81
2020/12/18 02:07:24;;;;;;;12.27;8.48;;;4.60;84.10;;;3.80;68.16;95790.34;5022579;28;20200;-82
2020/12/18 02:10:06;;;;;;;12.50;8.18;;;4.60;84.10;;;3.83;68.10;95792.66;5039153;28;20694;-81
2020/12/18 02:12:38;;;;;;;12.02;8.75;;;4.70;84.20;;;3.84;68.18;95799.50;5038324;28;20207;-81
2020/12/18 02:15:05;;;;;;;11.27;7.90;;;4.70;84.20;;;3.87;68.14;95801.84;5037849;28;20239;-82
2020/12/18 02:17:55;;;;;;;14.18;8.85;;;4.70;84.20;;;3.88;68.19;95802.66;5034491;28;20208;-82
2020/12/18 02:20:25;;;;;;;13.55;8.50;;;4.70;84.20;;;3.90;68.17;95809.38;5017897;28;20224;-82
2020/12/18 02:22:54;;;;;;;12.65;8.60;;;4.70;84.20;;;3.90;68.14;95793.78;5018114;28;20675;-82
2020/12/18 02:25:31;;;;;;;12.00;9.20;;;4.70;84.20;;;3.89;67.93;95799.94;5022814;28;20321;-82
2020/12/18 02:27:58;;;;;;;15.52;9.98;;;4.80;84.10;;;3.91;68.14;95789.44;5053813;28;20214;-81
2020/12/18 02:30:25;;;;;;;15.35;9.82;;;4.80;84.20;;;3.91;68.12;95792.84;5036547;28;20757;-82
2020/12/18 02:33:19;;;;;;;16.45;10.10;;;4.70;84.10;;;3.90;68.07;95780.81;5053272;28;20207;-82
2020/12/18 02:35:59;;;;;;;13.30;9.32;;;4.80;84.20;;;3.92;68.09;95783.28;5023487;28;20223;-81
2020/12/18 02:38:27;;;;;;;15.18;10.18;;;4.80;84.20;;;3.97;68.49;95781.13;5016810;28;20557;-81
2020/12/18 02:40:54;;;;;;;14.43;9.43;;;4.80;84.20;;;3.97;68.26;95778.53;5052054;28;20219;-82
2020/12/18 02:43:53;;;;;;;12.93;8.50;;;4.80;84.20;;;3.99;68.22;95792.19;5053338;28;20285;-80
2020/12/18 02:46:20;;;;;;;12.25;8.48;;;4.80;84.30;;;4.00;68.11;95784.31;5052985;28;20250;-82
2020/12/18 02:48:49;;;;;;;12.82;8.45;;;4.90;84.30;;;4.00;68.54;95783.47;5041379;28;20216;-81
2020/12/18 02:51:26;;;;;;;15.85;10.70;;;4.90;84.30;;;4.03;68.75;95792.75;5021190;28;20204;-82
2020/12/18 02:54:09;;;;;;;16.33;10.38;;;4.90;84.20;;;4.03;68.27;95801.38;5022261;28;20224;-82
2020/12/18 02:56:54;;;;;;;15.20;10.18;;;4.90;84.70;;;4.03;68.50;95796.19;5036503;28;20202;-80
2020/12/18 02:59:32;;;;;;;17.80;11.13;;;4.90;84.20;;;4.01;68.07;95793.72;5030794;28;20227;-80
2020/12/18 03:01:59;;;;;;;13.77;9.88;;;4.90;84.20;;;4.03;68.22;95791.00;5021258;28;20188;-81
2020/12/18 03:04:27;;;;;;;15.90;10.50;;;4.90;84.30;;;4.09;68.09;95789.63;5069627;28;20215;-81
2020/12/18 03:07:01;;;;;;;15.07;9.63;;;4.90;84.30;;;4.10;68.12;95796.47;5037653;28;20201;-81
2020/12/18 03:09:28;;;;;;;14.93;9.18;;;4.90;84.30;;;4.13;68.33;95796.25;5052583;28;20220;-81
2020/12/18 03:11:54;;;;;;;16.90;10.43;;;4.90;84.30;;;4.12;68.55;95789.41;5036493;28;20214;-80
2020/12/18 03:14:21;;;;;;;15.73;8.98;;;5.00;84.40;;;4.10;68.08;95786.09;5035052;28;20246;-81
2020/12/18 03:16:57;;;;;;;12.65;9.07;;;4.90;84.20;;;4.11;68.14;95785.16;5021257;28;20210;-80
2020/12/18 03:19:31;;;;;;;11.05;8.25;;;5.00;84.20;;;4.09;68.01;95789.63;5021468;28;20224;-81
2020/12/18 03:22:09;;;;;;;11.70;8.18;;;5.00;84.10;;;4.09;68.15;95785.28;5050473;28;20619;-80
2020/12/18 03:25:11;;;;;;;9.77;7.35;;;4.90;84.10;;;4.06;68.21;95788.13;5038856;28;20227;-80
2020/12/18 03:27:51;;;;;;;11.75;7.78;;;4.90;84.00;;;4.07;68.06;95788.97;5042933;28;20204;-80
2020/12/18 03:30:18;;;;;;;11.15;7.70;;;4.90;84.00;;;4.01;68.23;95783.31;5043190;28;20259;-81
2020/12/18 03:32:49;;;;;;;10.68;7.28;;;5.00;84.10;;;4.04;68.11;95789.22;5033062;28;20299;-80
2020/12/18 03:35:20;;;;;;;10.43;7.82;;;4.90;84.00;;;4.03;67.80;95793.59;5050692;28;20266;-80
2020/12/18 03:37:48;;;;;;;13.13;7.97;;;4.90;84.00;;;4.01;68.29;95790.28;5062692;28;20574;-81
2020/12/18 03:40:20;;;;;;;10.88;7.57;;;4.90;84.00;;;3.97;68.02;95781.94;5034027;28;20737;-81
2020/12/18 03:43:07;;;;;;;10.75;7.25;;;4.90;83.90;;;3.94;68.11;95796.94;5037000;28;20574;-81
2020/12/18 03:45:35;;;;;;;10.25;7.18;;;4.90;83.80;;;3.85;67.72;95775.19;5035722;28;20293;-82
2020/12/18 03:48:21;;;;;;;11.10;8.25;;;4.90;83.70;;;3.77;67.86;95782.78;5035253;28;20226;-81
2020/12/18 03:50:55;;;;;;;10.73;7.05;;;4.80;83.60;;;3.73;67.63;95778.81;5053357;28;20325;-81
2020/12/18 03:53:25;;;;;;;9.60;7.05;;;4.80;83.50;;;3.68;67.44;95784.38;5049830;28;20310;-81
2020/12/18 03:56:08;;;;;;;9.38;6.95;;;4.80;83.40;;;3.56;67.46;95786.22;5052981;28;20673;-81
2020/12/18 03:58:41;;;;;;;8.40;6.68;;;4.70;83.10;;;3.45;67.45;95787.09;5052669;28;20204;-81
2020/12/18 04:01:16;;;;;;;11.15;7.90;;;4.60;82.90;;;3.34;67.37;95787.16;5032408;28;20227;-81
2020/12/18 04:03:45;;;;;;;11.15;8.02;;;4.50;82.80;;;3.29;67.24;95790.13;5050853;28;20214;-81
2020/12/18 04:06:12;;;;;;;11.43;7.90;;;4.50;82.80;;;3.17;67.46;95794.56;5050434;28;20301;-81
2020/12/18 04:08:42;;;;;;;12.35;7.97;;;4.40;82.80;;;3.08;67.32;95787.50;5036331;28;20214;-81
2020/12/18 04:11:19;;;;;;;11.45;7.43;;;4.30;82.70;;;3.00;67.63;95792.47;5036303;28;20222;-81
2020/12/18 04:13:55;;;;;;;13.32;8.15;;;4.30;82.80;;;2.95;67.60;95802.41;5054155;28;20266;-81
2020/12/18 04:16:29;;;;;;;12.60;8.05;;;4.20;82.70;;;2.82;67.67;95784.41;5041198;28;20235;-82
2020/12/18 04:18:56;;;;;;;13.65;8.68;;;4.10;82.70;;;2.83;67.83;95801.59;5051039;28;20495;-81
2020/12/18 04:21:26;;;;;;;14.05;8.63;;;4.10;82.80;;;2.77;67.50;95808.09;5031931;28;20692;-82
2020/12/18 04:24:14;;;;;;;13.95;8.82;;;4.00;82.70;;;2.67;67.77;95800.25;5032377;28;20310;-81
2020/12/18 04:26:42;;;;;;;14.32;8.88;;;3.90;82.70;;;2.63;67.72;95810.94;5033461;28;20314;-82
2020/12/18 04:29:11;;;;;;;15.50;9.68;;;3.80;82.70;;;2.56;67.68;95810.59;5029827;28;20228;-81
2020/12/18 04:31:40;;;;;;;16.77;9.95;;;3.80;82.80;;;2.50;68.05;95805.91;5033243;28;20204;-81
2020/12/18 04:34:07;;;;;;;17.85;10.38;;;3.80;82.90;;;2.43;67.68;95808.16;5017212;28;20248;-81
2020/12/18 04:36:53;;;;;;;15.48;10.10;;;3.70;82.80;;;2.38;67.81;95805.06;5046225;28;20662;-81
2020/12/18 04:39:37;;;;;;;16.60;10.65;;;3.70;82.90;;;2.37;68.23;95801.66;5048378;28;20215;-80
2020/12/18 04:42:04;;;;;;;17.38;10.80;;;3.50;82.80;;;2.33;67.93;95804.59;5032681;28;20200;-80
2020/12/18 04:44:32;;;;;;;18.10;10.50;;;3.50;82.90;;;2.27;68.08;95798.16;5049526;28;20227;-81
2020/12/18 04:47:09;;;;;;;17.33;10.07;;;3.50;83.10;;;2.29;67.98;95805.81;5016186;28;20669;-80
2020/12/18 04:49:41;;;;;;;19.92;11.65;;;3.40;83.10;;;2.25;68.15;95810.38;5031750;28;20286;-81
2020/12/18 04:52:23;;;;;;;22.35;13.43;;;3.40;83.10;;;2.24;68.04;95813.91;5056445;28;20244;-82
2020/12/18 04:54:59;;;;;;;21.20;12.18;;;3.40;83.30;;;2.16;68.15;95809.34;5056661;28;20223;-81
2020/12/18 04:57:47;;;;;;;21.05;12.43;;;3.30;83.10;;;2.19;68.32;95819.44;5065881;28;20203;-82
2020/12/18 05:00:21;;;;;;;24.88;14.02;;;3.30;83.20;;;2.21;68.81;95820.16;5019633;28;20250;-81
2020/12/18 05:03:06;;;;;;;25.75;13.55;;;3.30;83.40;;;2.20;68.53;95818.50;5039447;28;20245;-82
2020/12/18 05:05:36;;;;;;;21.50;12.55;;;3.30;83.60;;;2.30;68.94;95821.22;5041529;28;20243;-81
2020/12/18 05:08:09;;;;;;;20.83;12.88;;;3.30;84.60;;;2.39;69.01;95832.63;5042458;28;20294;-82
2020/12/18 05:10:36;;;;;;;30.02;16.23;;;3.30;84.10;;;2.47;68.94;95830.25;5041285;28;20278;-81
2020/12/18 05:13:25;;;;;;;28.77;16.55;;;3.30;84.30;;;2.59;68.92;95844.03;5071256;28;20199;-81
2020/12/18 05:16:03;;;;;;;24.75;13.68;;;3.40;84.50;;;2.70;68.91;95846.59;5043163;28;20619;-82
2020/12/18 05:18:49;;;;;;;21.23;12.27;;;3.50;84.70;;;2.77;69.13;95846.97;5044432;28;20207;-81
2020/12/18 05:21:39;;;;;;;19.83;11.77;;;3.50;84.70;;;2.86;68.77;95848.00;5030238;28;20281;-81
2020/12/18 05:24:10;;;;;;;20.73;12.10;;;3.60;84.80;;;2.92;68.65;95844.09;5022119;28;20228;-80
2020/12/18 05:26:41;;;;;;;19.40;11.82;;;3.60;84.70;;;2.99;68.36;95853.03;5037788;28;20677;-82
2020/12/18 05:29:10;;;;;;;18.88;11.05;;;3.80;84.80;;;3.03;68.52;95859.63;5054164;28;20220;-81
2020/12/18 05:32:02;;;;;;;21.13;12.50;;;3.80;85.50;;;3.09;68.74;95853.94;5057408;28;20207;-82
2020/12/18 05:34:43;;;;;;;20.70;12.07;;;3.80;84.80;;;3.14;68.84;95856.19;5028845;28;20706;-82
2020/12/18 05:37:39;;;;;;;26.95;17.52;;;3.90;84.80;;;3.20;68.56;95850.50;5044171;28;20802;-81
2020/12/18 05:40:29;;;;;;;26.45;14.55;;;3.90;84.90;;;3.27;68.63;95837.88;5029811;28;20222;-81
2020/12/18 05:43:16;;;;;;;21.80;13.13;;;4.00;84.80;;;3.29;68.62;95843.75;5044197;28;20787;-81
2020/12/18 05:45:48;;;;;;;22.50;13.10;;;4.00;84.60;;;3.31;68.24;95853.06;5026165;28;20258;-81
2020/12/18 05:48:34;;;;;;;22.20;13.68;;;4.10;84.60;;;3.32;68.10;95851.28;5043906;28;20232;-81
2020/12/18 05:51:36;;;;;;;23.30;14.15;;;4.20;84.50;;;3.33;68.07;95852.94;5027760;28;20223;-81
2020/12/18 05:54:37;;;;;;;21.73;12.98;;;4.20;84.60;;;3.30;68.67;95842.81;5028843;28;20227;-81
2020/12/18 05:57:15;;;;;;;20.42;12.57;;;4.20;84.60;;;3.37;68.86;95851.75;5042441;28;20239;-81
2020/12/18 05:59:55;;;;;;;20.35;12.00;;;4.20;84.50;;;3.41;68.78;95853.13;5058144;28;20281;-82
2020/12/18 06:02:57;;;;;;;21.90;13.63;;;4.20;84.50;;;3.44;68.76;95847.72;5053529;28;20577;-82
2020/12/18 06:05:46;;;;;;;21.65;12.50;;;4.30;84.60;;;3.47;68.38;95855.22;5052795;28;20223;-81
2020/12/18 06:08:19;;;;;;;23.15;14.20;;;4.30;84.60;;;3.48;68.39;95843.09;5056250;28;20306;-82
2020/12/18 06:10:52;;;;;;;26.52;15.63;;;4.30;84.60;;;3.52;68.42;95858.28;5041029;28;20240;-82
2020/12/18 06:13:30;;;;;;;28.13;16.40;;;4.30;84.50;;;3.51;68.59;95842.84;5026058;28;20261;-81
2020/12/18 06:16:21;;;;;;;26.67;15.63;;;4.30;84.50;;;3.54;68.17;95863.34;5040345;28;20200;-81
2020/12/18 06:19:20;;;;;;;21.83;13.40;;;4.40;84.40;;;3.53;68.55;95857.31;5044675;28;20231;-82
2020/12/18 06:21:58;;;;;;;21.63;13.27;;;4.40;84.80;;;3.56;68.26;95864.03;5020589;28;20200;-81
2020/12/18 06:25:04;;;;;;;23.77;13.13;;;4.40;84.40;;;3.58;68.38;95874.31;5068424;28;20228;-81
2020/12/18 06:28:02;;;;;;;21.42;12.45;;;4.40;84.40;;;3.58;68.67;95882.09;5042593;28;20212;-82
2020/12/18 06:31:35;;;;;;;21.85;15.60;;;4.40;84.50;;;3.58;68.59;95882.09;5035408;28;20252;-82
2020/12/18 06:34:04;;;;;;;23.42;12.90;;;4.50;84.60;;;3.60;68.46;95886.19;5015904;28;20718;-81
2020/12/18 06:36:55;;;;;;;23.48;13.68;;;4.50;84.50;;;3.63;68.61;95882.53;5019816;28;20209;-82
2020/12/18 06:39:41;;;;;;;22.35;13.95;;;4.50;84.60;;;3.65;68.41;95880.63;5034226;28;20437;-82
2020/12/18 06:42:31;;;;;;;21.63;13.80;;;4.50;84.50;;;3.68;68.45;95885.56;5047311;28;20209;-82
2020/12/18 06:45:18;;;;;;;21.90;12.57;;;4.50;84.50;;;3.67;68.45;95883.91;5030857;28;20227;-82
2020/12/18 06:47:54;;;;;;;20.15;12.48;;;4.50;84.40;;;3.66;68.50;95883.09;5049145;28;20196;-81
2020/12/18 06:50:42;;;;;;;17.42;11.38;;;4.50;84.40;;;3.69;68.41;95885.44;5023390;28;20232;-82
2020/12/18 06:53:15;;;;;;;19.55;10.63;;;4.50;84.40;;;3.68;68.40;95886.38;5033976;28;20201;-81
2020/12/18 06:55:54;;;;;;;16.25;9.57;;;4.50;84.40;;;3.68;68.75;95903.72;5060616;28;20219;-81
2020/12/18 06:58:44;;;;;;;15.82;9.75;;;4.50;85.20;;;3.71;68.41;95889.69;5050666;28;20212;-81
2020/12/18 07:01:10;;;;;;;18.80;11.25;;;4.60;84.50;;;3.73;68.32;95901.56;5036475;28;20203;-82
2020/12/18 07:03:53;;;;;;;19.75;12.00;;;4.60;84.50;;;3.70;68.61;95894.06;5038544;28;20204;-82
2020/12/18 07:06:31;;;;;;;18.73;11.77;;;4.60;84.50;;;3.77;68.65;95899.56;5053106;28;20216;-82
2020/12/18 07:08:58;;;;;;;18.77;11.60;;;4.60;84.50;;;3.77;68.63;95892.63;5036380;28;20224;-82
2020/12/18 07:11:31;;;;;;;18.13;11.35;;;4.60;85.30;;;3.79;68.56;95890.69;5034292;28;20323;-84
2020/12/18 07:14:03;;;;;;;16.17;10.90;;;4.60;84.60;;;3.84;68.28;95890.31;5035375;28;20241;-83
2020/12/18 07:16:34;;;;;;;17.15;11.23;;;4.60;84.60;;;3.86;68.00;95888.44;5035113;28;20192;-83
2020/12/18 07:19:04;;;;;;;17.02;10.40;;;4.60;84.60;;;3.84;68.51;95885.97;5018427;28;20270;-83
2020/12/18 07:21:41;;;;;;;17.40;10.85;;;4.70;84.80;;;3.92;68.61;95880.16;5035903;28;20295;-83
2020/12/18 07:24:07;;;;;;;16.08;10.05;;;4.80;84.80;;;3.95;68.69;95881.66;5052362;28;20212;-83
2020/12/18 07:26:34;;;;;;;17.83;11.27;;;4.70;84.70;;;3.98;68.81;95884.03;5036245;28;20254;-82
2020/12/18 07:29:02;;;;;;;17.60;11.05;;;4.80;84.80;;;3.96;68.73;95884.13;5037069;28;20234;-83
2020/12/18 07:31:29;;;;;;;20.00;12.77;;;4.80;84.80;;;4.03;68.49;95883.63;5036653;28;20212;-84
2020/12/18 07:34:00;;;;;;;19.85;12.40;;;4.80;84.80;;;4.02;68.79;95882.81;5036718;28;20303;-83
2020/12/18 07:36:30;;;;;;;20.73;12.27;;;4.80;84.80;;;4.08;68.56;95884.88;5036961;28;20245;-83
2020/12/18 07:39:00;;;;;;;19.85;12.30;;;4.80;84.80;;;4.09;68.76;95886.53;5036588;28;20265;-82
2020/12/18 07:41:33;;;;;;;21.85;13.80;;;4.90;84.80;;;4.12;68.69;95882.88;5036407;28;20208;-82
2020/12/18 07:44:07;;;;;;;22.33;14.60;;;4.90;84.70;;;4.13;68.41;95882.72;5052748;28;20212;-82
2020/12/18 07:46:36;;;;;;;20.17;13.32;;;4.90;84.70;;;4.15;68.70;95877.41;5036559;28;20234;-83
2020/12/18 07:49:09;;;;;;;19.52;12.02;;;4.90;84.70;;;4.22;68.77;95877.72;5036169;28;20216;-83
2020/12/18 07:51:40;;;;;;;20.40;13.02;;;5.00;84.80;;;4.24;68.77;95876.63;5035997;28;20242;-82
2020/12/18 07:54:07;;;;;;;17.98;11.75;;;5.00;84.90;;;4.26;68.46;95873.91;5035743;28;20220;-82
2020/12/18 07:56:34;;;;;;;19.20;12.30;;;5.00;84.90;;;4.34;68.79;95876.69;5034520;28;20722;-82
2020/12/18 07:59:07;;;;;;;16.98;10.95;;;5.10;85.00;;;4.38;68.63;95878.09;5052528;28;20240;-83
2020/12/18 08:01:37;;;;;;;15.88;10.90;;;5.10;85.00;;;4.42;68.85;95876.88;5019541;28;20196;-82
2020/12/18 08:04:08;;;;;;;17.40;10.98;;;5.10;85.10;;;4.46;68.65;95882.63;5015849;28;20219;-82
2020/12/18 08:06:38;;;;;;;16.42;11.05;;;5.20;85.90;;;4.53;68.63;95886.38;5032619;28;20282;-83
2020/12/18 08:09:11;;;;;;;19.33;11.45;;;5.20;85.10;;;4.57;68.46;95881.72;5032345;28;20587;-83
2020/12/18 08:11:42;;;;;;;17.65;11.00;;;5.30;85.00;;;4.62;68.50;95884.75;5015639;28;20789;-83
2020/12/18 08:14:11;;;;;;;18.27;11.18;;;5.30;85.00;;;4.64;68.57;95883.66;5015781;28;20231;-83
2020/12/18 08:16:39;;;;;;;17.98;11.93;;;5.30;85.00;;;4.66;68.58;95883.53;5035189;28;20192;-81
2020/12/18 08:19:09;;;;;;;19.10;12.32;;;5.40;85.10;;;4.71;68.49;95896.13;5019109;28;20239;-83
2020/12/18 08:21:41;;;;;;;20.27;12.13;;;5.40;85.00;;;4.71;68.54;95885.75;5035402;28;20203;-81
2020/12/18 08:24:18;;;;;;;18.60;11.93;;;5.40;85.00;;;4.74;68.31;95894.09;5021210;28;20220;-82
2020/12/18 08:26:56;;;;;;;17.77;12.75;;;5.50;84.90;;;4.76;68.55;95894.78;5031017;28;20269;-79
2020/12/18 08:29:23;;;;;;;19.55;13.05;;;5.50;84.90;;;4.76;68.26;95888.75;5064774;28;20689;-80
2020/12/18 08:31:58;;;;;;;20.70;12.70;;;5.50;84.80;;;4.80;68.53;95893.56;5033442;28;20287;-81
2020/12/18 08:34:31;;;;;;;16.88;11.73;;;5.50;84.80;;;4.83;68.53;95894.28;5032813;28;20215;-81
2020/12/18 08:36:59;;;;;;;18.20;12.30;;;5.60;84.90;;;4.84;68.65;95903.72;5051317;28;20196;-81
2020/12/18 08:39:34;;;;;;;16.55;11.10;;;5.60;84.80;;;4.83;68.14;95905.47;5032251;28;20280;-80
2020/12/18 08:42:03;;;;;;;17.40;11.70;;;5.60;84.70;;;4.85;68.41;95902.75;5031567;28;20207;-79
2020/12/18 08:44:39;;;;;;;20.65;12.70;;;5.60;84.80;;;4.85;68.28;95898.38;5048336;28;20598;-80
2020/12/18 08:47:30;;;;;;;22.40;12.57;;;5.60;84.80;;;4.88;68.54;95897.28;5029176;28;20200;-79
2020/12/18 08:49:58;;;;;;;36.50;13.93;;;5.60;84.70;;;4.94;68.66;95910.59;5049680;28;20232;-80
2020/12/18 08:52:29;;;;;;;24.40;11.98;;;5.70;84.90;;;4.98;68.78;95916.34;5017365;28;20204;-80
2020/12/18 08:55:07;;;;;;;46.20;16.35;;;5.70;84.90;;;5.01;68.72;95921.28;5032862;28;20220;-80
2020/12/18 08:57:39;;;;;;;34.22;15.25;;;5.70;84.80;;;5.05;68.45;95919.22;5048669;28;20207;-80
2020/12/18 09:00:14;;;;;;;29.73;12.75;;;5.80;84.90;;;5.01;68.16;95908.28;5033563;28;20204;-80
2020/12/18 09:02:53;;;;;;;65.82;12.63;;;5.80;84.80;;;5.03;68.42;95910.72;5032950;28;20672;-81
2020/12/18 09:05:31;;;;;;;68.60;12.10;;;5.80;84.60;;;4.97;68.48;95912.91;5050447;28;20258;-80
2020/12/18 09:08:05;;;;;;;74.85;12.35;;;5.80;84.50;;;4.97;68.29;95919.91;5033383;28;20632;-80
2020/12/18 09:10:51;;;;;;;50.50;12.20;;;5.80;84.60;;;4.99;68.44;95920.56;5033941;28;20662;-80
2020/12/18 09:13:21;;;;;;;52.30;13.10;;;5.80;84.50;;;5.00;68.66;95917.03;5051018;28;20261;-80
2020/12/18 09:15:56;;;;;;;46.80;14.23;;;5.80;84.60;;;5.05;68.42;95914.03;5017113;28;20251;-80
2020/12/18 09:18:25;;;;;;;48.47;14.70;;;5.90;84.80;;;5.09;68.76;95915.41;5032391;28;20199;-80
2020/12/18 09:20:53;;;;;;;52.70;14.15;;;5.80;84.90;;;5.12;68.56;95915.97;5047395;28;20624;-80
2020/12/18 09:23:31;;;;;;;55.05;15.50;;;5.80;84.90;;;5.17;68.43;95919.97;5044437;28;20223;-80
2020/12/18 09:26:01;;;;;;;52.90;15.52;;;5.90;84.90;;;5.19;68.46;95915.44;5032720;28;20200;-81
2020/12/18 09:28:38;;;;;;;47.83;14.60;;;5.90;84.90;;;5.21;68.38;95916.13;5050047;28;20192;-81
2020/12/18 09:31:08;;;;;;;49.05;14.88;;;5.90;84.90;;;5.25;68.11;95922.72;5068698;28;20227;-81
2020/12/18 09:33:37;;;;;;;32.95;14.80;;;5.90;84.80;;;5.29;68.23;95922.31;5044902;28;20240;-81
2020/12/18 09:36:11;;;;;;;48.75;14.43;;;6.00;85.00;;;5.32;68.40;95923.81;5050271;28;20208;-80
2020/12/18 09:38:52;;;;;;;47.72;13.95;;;5.90;84.80;;;5.36;68.65;95921.75;5028520;28;20654;-79
2020/12/18 09:41:21;;;;;;;35.35;13.00;;;6.00;84.90;;;5.37;68.59;95916.44;5030552;28;20215;-80
2020/12/18 09:43:49;;;;;;;45.53;12.15;;;6.00;85.10;;;5.42;68.42;95911.66;5050813;28;20189;-79
2020/12/18 09:46:18;;;;;;;68.80;13.57;;;6.20;85.30;;;5.54;68.52;95911.53;5034794;28;20670;-78
2020/12/18 09:48:47;;;;;;;61.22;14.05;;;6.10;85.30;;;5.61;68.65;95912.63;5048728;28;20208;-80
2020/12/18 09:51:15;;;;;;;37.92;13.07;;;6.20;85.40;;;5.67;68.80;95909.47;5033094;28;20498;-80
2020/12/18 09:53:44;;;;;;;71.75;11.80;;;6.20;85.50;;;5.74;68.51;95910.56;5050542;28;20208;-80
2020/12/18 09:56:12;;;;;;;52.55;11.85;;;6.30;85.50;;;5.76;68.34;95902.63;5061150;28;20614;-80
2020/12/18 09:58:39;;;;;;;81.25;12.32;;;6.30;85.40;;;5.79;68.55;95904.97;5045567;28;20216;-80
2020/12/18 10:01:06;;;;;;;65.32;11.77;;;6.40;85.30;;;5.83;68.43;95897.69;5040838;28;20286;-80
2020/12/18 10:03:36;;;;;;;59.08;10.63;;;6.40;85.30;;;5.86;68.20;95900.00;5063561;28;20218;-81
2020/12/18 10:06:02;;;;;;;52.25;11.48;;;6.50;85.30;;;5.84;68.36;95884.53;5051470;28;20215;-80
2020/12/18 10:08:31;;;;;;;44.60;10.73;;;6.50;85.30;;;5.93;68.41;95893.28;5055568;28;20207;-80
2020/12/18 10:10:59;;;;;;;60.45;12.90;;;6.50;85.30;;;5.97;68.47;95892.06;5053653;28;20273;-80
2020/12/18 10:13:26;;;;;;;71.93;12.57;;;6.60;85.40;;;6.02;68.68;95889.09;5053505;28;20703;-80
2020/12/18 10:15:53;;;;;;;49.13;9.77;;;6.60;86.20;;;6.05;68.45;95884.44;5052001;28;20228;-80
2020/12/18 10:18:20;;;;;;;55.35;10.45;;;6.60;85.40;;;6.07;68.25;95876.47;5054187;28;20211;-80
2020/12/18 10:20:47;;;;;;;48.28;10.70;;;6.70;85.40;;;6.12;68.46;95883.88;5054055;28;20220;-82
2020/12/18 10:23:13;;;;;;;72.35;11.30;;;6.70;85.30;;;6.15;68.48;95876.59;5053199;28;20692;-80
2020/12/18 10:25:56;;;;;;;63.05;11.43;;;6.80;85.30;;;6.18;68.31;95886.72;5069863;28;20281;-79
2020/12/18 10:28:25;;;;;;;53.53;10.88;;;6.80;85.30;;;6.18;68.39;95873.69;5053643;28;20204;-80
2020/12/18 10:30:54;;;;;;;47.83;11.27;;;6.80;85.30;;;6.24;68.15;95880.94;5053330;28;20273;-80
2020/12/18 10:33:21;;;;;;;62.08;10.82;;;6.80;85.20;;;6.24;68.23;95870.53;5053625;28;20240;-81
2020/12/18 10:35:48;;;;;;;61.78;11.45;;;6.90;85.20;;;6.26;68.28;95883.41;5069886;28;20242;-79
2020/12/18 10:38:15;;;;;;;49.03;10.93;;;6.90;85.00;;;6.27;68.28;95884.25;5036352;28;20599;-80
2020/12/18 10:40:42;;;;;;;56.15;10.30;;;6.90;85.00;;;6.27;67.82;95881.63;5020044;28;20227;-79
2020/12/18 10:43:12;;;;;;;58.03;10.82;;;6.90;85.00;;;6.26;68.25;95875.59;5053326;28;20228;-80
2020/12/18 10:45:39;;;;;;;61.72;11.02;;;6.90;85.00;;;6.30;68.24;95873.53;5053088;28;20323;-80
2020/12/18 10:48:07;;;;;;;45.92;10.30;;;6.90;85.10;;;6.32;68.33;95871.59;5036587;28;20224;-79
2020/12/18 10:50:43;;;;;;;40.42;9.25;;;7.00;85.10;;;6.33;68.22;95865.44;5035023;28;20259;-79
2020/12/18 10:53:10;;;;;;;41.50;9.27;;;6.90;85.00;;;6.30;68.61;95870.91;5019598;28;20604;-79